Benham, NC

10:28 PM EST on December 04, 2016 (GMT -0500)
The Day Family of Pleasant Hill | | Change Station
Active Advisory: Special Statement

Elev 1196 ft 36.26 °N, 80.90 °W | Updated 22 seconds ago

Light Rain
Light Rain
38.3 °F
Feels Like 38 °F
N
0.0
Wind Variable Wind from SE
Gusts 0.0 mph

Today
High -- | Low -- °F
--% Chance of Precip.
Yesterday
High -- | Low -- °F
Precip. -- in
Pressure 30.12 in
Visibility 5.0 miles
Clouds Overcast 300 ft
Windchill 38 °F
Dew Point 38 °F
Humidity 97%
Rainfall 0.56 in
Snow Depth Not available.
7:19 AM 5:08 PM
Waxing Crescent, 27% visible
METAR KUKF 050305Z AUTO 00000KT 5SM -RA OVC003 02/02 A3012 RMK AO2 P0001
Pressure 30.12 in
Visibility 5.0 miles
Clouds Overcast 300 ft
Windchill 38 °F
Dew Point 38 °F
Humidity 97%
Rainfall 0.56 in
Snow Depth Not available.
7:19 AM 5:08 PM
Waxing Crescent, 27% visible
METAR KUKF 050305Z AUTO 00000KT 5SM -RA OVC003 02/02 A3012 RMK AO2 P0001

10-Day Weather Forecast

Almanac

Astronomy

Dec. 04, 2016 Rise Set
Actual Time
Civil Twilight
Nautical Twilight
Astronomical Twilight
Moon
Length of Visible Light
Length of Day
Tomorrow will be .
, % of the Moon is Illuminated

Today's Extremes

State Highs State Lows

Community

WunderPhotos

Upload Photos

1,955,752 photos uploaded!

WunderBlog® & News

Nearby

Air Quality

  Air Quality AQ Index Pollutant
Not available.

Snow Depth

Station Depth Elevation

Earthquake Activity

City Distance Mag. Time & Date
Minimum magnitude displayed is 2.5.

Coastal Water Temperatures

Place Temperature

Stations

Nearby Weather Stations

Station Location Temp. Windchill Dew Point Humidity Wind Precip. Elev Updated Type
                   

Watches & Warnings

Special Statement
Issued: 8:00 PM EST Dec. 4, 2016 – National Weather Service

... Pockets of light freezing rain expected...

Through midnight... expect some light freezing rain along the
higher peaks and ridge lines. Most of the valley locations will
remain as rain. Warmer air will move into the area after midnight
and transition much of the wintry weather to plain rain.



800 PM EST sun Dec 4 2016

... Pockets of light freezing rain expected...

Through midnight... expect some light freezing rain along the
higher peaks and ridge lines. Most of the valley locations will
remain as rain. Warmer air will move into the area after midnight
and transition much of the wintry weather to plain rain.


800 PM EST sun Dec 4 2016

... Pockets of light freezing rain expected...

Through midnight... expect some light freezing rain along the
higher peaks and ridge lines. Most of the valley locations will
remain as rain. Warmer air will move into the area after midnight
and transition much of the wintry weather to plain rain.